Información del aeropuerto LEVD

Información de pista
Pista 05 Longitud 9843 ft Anchura 197 ft
Elevación 2768 ft Umbral 0 ft Rumbo 45
Pista 23 Longitud 9843 ft Anchura 197 ft
Elevación 2775 ft Umbral 0 ft Rumbo 225
Pista 15 Longitud 2976 ft Anchura 197 ft
Elevación 2770 ft Umbral 0 ft Rumbo 144
Pista 33 Longitud 2976 ft Anchura 197 ft
Elevación 2771 ft Umbral 0 ft Rumbo 324
Frecuencias del aeropuerto
Tipo TWR Nombre TWR Frecuencia 122.2 MHZ
Radioayudas del aeropuerto
Tipo TACAN Nombre Valladolid Frecuencia 108200 KHZ
Tipo NDB Nombre Valladolid Frecuencia 342 KHZ
Información meteorológica del aeropuerto y NOTAM
ADDS - METARS form results

(1640 UTC 15 August 2020)
Data provider http://aviationweather.gov/metar/data/
 
METAR text: LEVD 151630Z 27015KT 240V320 9999 FEW049 23/06 Q1015
Conditions at: LEVD (VALLADOLID(MIL/C, ES) observed 1630 UTC 15 August 2020
Temperature: 23.0°C (73°F)
Dewpoint: 6.0°C (43°F) [RH = 33%]
Pressure (altimeter): 29.97 inches Hg (1015.0 mb)
Winds: from the W (270 degrees) at 17 MPH (15 knots; 7.7 m/s)
Visibility: 6 or more miles (10+ km)
Ceiling: at least 12,000 feet AGL
Clouds: few clouds at 4900 feet AGL
Weather: no significant weather observed at this time

METAR text: LEVD 151600Z 26018G28KT 9999 FEW049 24/05 Q1015
Conditions at: LEVD (VALLADOLID(MIL/C, ES) observed 1600 UTC 15 August 2020
Temperature: 24.0°C (75°F)
Dewpoint: 5.0°C (41°F) [RH = 29%]
Pressure (altimeter): 29.97 inches Hg (1015.0 mb)
Winds: from the W (260 degrees) at 21 MPH (18 knots; 9.3 m/s)
gusting to 32 MPH (28 knots; 14.4 m/s)
Visibility: 6 or more miles (10+ km)
Ceiling: at least 12,000 feet AGL
Clouds: few clouds at 4900 feet AGL
Weather: no significant weather observed at this time

Forecast for: LEVD (VALLADOLID(MIL/C, ES)
Text: TAF LEVD 151400Z 1515/1615 26010KT 9999 FEW045 TX27/1516Z TN08/1605Z
Forecast period: 1500 UTC 15 August 2020 to 1500 UTC 16 August 2020
Forecast type: FROM: standard forecast or significant change
Winds: from the W (260 degrees) at 12 MPH (10 knots; 5.1 m/s)
Visibility: 6 or more miles (10+ km)
Ceiling: at least 12,000 feet AGL
Clouds: few clouds at 4500 feet AGL
Weather: no significant weather forecast for this period
Text: PROB30
Forecast period: 1500 to 2000 UTC 15 August 2020
Forecast type: TEMPORARY: The following changes expected for less than half the time period
Winds: from the W (260 degrees) at 17 MPH (15 knots; 7.7 m/s)
gusting to 29 MPH (25 knots; 12.9 m/s)
Visibility: missing
Ceiling: unknown
Clouds: missing
Weather: no significant weather forecast for this period
Text: TEMPO 1515/1520 26015G25KT
Forecast period: 2000 UTC 15 August 2020 to 0600 UTC 16 August 2020
Forecast type: TEMPORARY: The following changes expected for less than half the time period
Winds: variable direction winds at 6 MPH (5 knots; 2.6 m/s)
Visibility: missing
Ceiling: unknown
Clouds: missing
Weather: no significant weather forecast for this period